sensor_id;sensor_type;location;lat;lon;timestamp;pressure;altitude;pressure_sealevel;temperature;humidity
18900;BME280;9582;52.018;6.306;2022-07-23T00:02:15;101757.84;;;17.07;83.98
18900;BME280;9582;52.018;6.306;2022-07-23T00:04:42;101756.41;;;17.02;84.43
18900;BME280;9582;52.018;6.306;2022-07-23T00:07:09;101747.09;;;16.95;84.05
18900;BME280;9582;52.018;6.306;2022-07-23T00:09:36;101750.69;;;16.78;84.74
18900;BME280;9582;52.018;6.306;2022-07-23T00:12:03;101753.59;;;16.73;85.09
18900;BME280;9582;52.018;6.306;2022-07-23T00:14:30;101754.94;;;16.65;85.78
18900;BME280;9582;52.018;6.306;2022-07-23T00:16:56;101754.16;;;16.63;85.27
18900;BME280;9582;52.018;6.306;2022-07-23T00:19:22;101749.84;;;16.62;85.97
18900;BME280;9582;52.018;6.306;2022-07-23T00:21:49;101743.69;;;16.61;85.56
18900;BME280;9582;52.018;6.306;2022-07-23T00:24:17;101744.56;;;16.62;85.27
18900;BME280;9582;52.018;6.306;2022-07-23T00:26:43;101744.72;;;16.59;85.21
18900;BME280;9582;52.018;6.306;2022-07-23T00:29:10;101746.34;;;16.61;85.59
18900;BME280;9582;52.018;6.306;2022-07-23T00:31:36;101743.31;;;16.52;86.42
18900;BME280;9582;52.018;6.306;2022-07-23T00:34:03;101741.69;;;16.49;86.48
18900;BME280;9582;52.018;6.306;2022-07-23T00:36:29;101744.22;;;16.35;86.06
18900;BME280;9582;52.018;6.306;2022-07-23T00:38:57;101745.69;;;16.41;86.57
18900;BME280;9582;52.018;6.306;2022-07-23T00:41:25;101744.22;;;16.35;86.05
18900;BME280;9582;52.018;6.306;2022-07-23T00:43:52;101757.72;;;16.13;86.65
18900;BME280;9582;52.018;6.306;2022-07-23T00:46:19;101750.63;;;16.31;86.38
18900;BME280;9582;52.018;6.306;2022-07-23T00:48:45;101755.53;;;16.22;86.10
18900;BME280;9582;52.018;6.306;2022-07-23T00:51:12;101767.91;;;16.04;86.30
18900;BME280;9582;52.018;6.306;2022-07-23T00:53:39;101761.47;;;15.92;86.43
18900;BME280;9582;52.018;6.306;2022-07-23T00:56:06;101758.84;;;15.92;86.80
18900;BME280;9582;52.018;6.306;2022-07-23T00:58:35;101767.25;;;15.83;88.17
18900;BME280;9582;52.018;6.306;2022-07-23T01:01:01;101762.59;;;15.88;88.96
18900;BME280;9582;52.018;6.306;2022-07-23T01:03:28;101749.75;;;15.81;89.36
18900;BME280;9582;52.018;6.306;2022-07-23T01:05:55;101753.88;;;15.86;89.86
18900;BME280;9582;52.018;6.306;2022-07-23T01:08:22;101752.91;;;15.72;89.74
18900;BME280;9582;52.018;6.306;2022-07-23T01:10:50;101746.91;;;15.85;89.68
18900;BME280;9582;52.018;6.306;2022-07-23T01:13:16;101743.81;;;15.77;89.57
18900;BME280;9582;52.018;6.306;2022-07-23T01:15:44;101735.59;;;15.83;89.00
18900;BME280;9582;52.018;6.306;2022-07-23T01:18:11;101746.06;;;15.85;89.22
18900;BME280;9582;52.018;6.306;2022-07-23T01:20:38;101738.69;;;15.74;88.85
18900;BME280;9582;52.018;6.306;2022-07-23T01:23:07;101740.69;;;15.86;88.59
18900;BME280;9582;52.018;6.306;2022-07-23T01:25:35;101741.53;;;15.87;88.02
18900;BME280;9582;52.018;6.306;2022-07-23T01:28:04;101745.50;;;15.78;87.30
18900;BME280;9582;52.018;6.306;2022-07-23T01:30:31;101746.16;;;15.66;87.34
18900;BME280;9582;52.018;6.306;2022-07-23T01:32:59;101739.56;;;15.57;87.67
18900;BME280;9582;52.018;6.306;2022-07-23T01:35:26;101744.03;;;15.55;87.41
18900;BME280;9582;52.018;6.306;2022-07-23T01:37:57;101739.03;;;15.51;87.97
18900;BME280;9582;52.018;6.306;2022-07-23T01:40:24;101739.88;;;15.51;87.47
18900;BME280;9582;52.018;6.306;2022-07-23T01:42:52;101738.97;;;15.34;88.14
18900;BME280;9582;52.018;6.306;2022-07-23T01:45:19;101735.41;;;15.18;87.54
18900;BME280;9582;52.018;6.306;2022-07-23T01:47:49;101732.53;;;15.22;87.82
18900;BME280;9582;52.018;6.306;2022-07-23T01:50:16;101737.25;;;15.16;88.44
18900;BME280;9582;52.018;6.306;2022-07-23T01:53:11;101737.47;;;15.11;89.25
18900;BME280;9582;52.018;6.306;2022-07-23T01:55:41;101733.22;;;15.09;89.41
18900;BME280;9582;52.018;6.306;2022-07-23T01:58:08;101727.09;;;15.08;89.62
18900;BME280;9582;52.018;6.306;2022-07-23T02:00:35;101734.03;;;14.92;90.17
18900;BME280;9582;52.018;6.306;2022-07-23T02:03:02;101725.09;;;14.77;90.18
18900;BME280;9582;52.018;6.306;2022-07-23T02:05:29;101731.53;;;14.89;90.66
18900;BME280;9582;52.018;6.306;2022-07-23T02:07:55;101729.25;;;15.00;90.79
18900;BME280;9582;52.018;6.306;2022-07-23T02:10:23;101732.78;;;14.99;90.50
18900;BME280;9582;52.018;6.306;2022-07-23T02:12:51;101738.69;;;14.87;90.78
18900;BME280;9582;52.018;6.306;2022-07-23T02:15:17;101731.16;;;14.61;91.12
18900;BME280;9582;52.018;6.306;2022-07-23T02:17:44;101723.81;;;14.67;90.95
18900;BME280;9582;52.018;6.306;2022-07-23T02:20:11;101721.97;;;14.69;91.31
18900;BME280;9582;52.018;6.306;2022-07-23T02:22:38;101726.81;;;14.78;91.41
18900;BME280;9582;52.018;6.306;2022-07-23T02:25:05;101724.31;;;14.75;91.52
18900;BME280;9582;52.018;6.306;2022-07-23T02:27:33;101725.59;;;14.67;91.89
18900;BME280;9582;52.018;6.306;2022-07-23T02:30:02;101729.16;;;14.66;91.96
18900;BME280;9582;52.018;6.306;2022-07-23T02:32:29;101730.91;;;14.65;91.75
18900;BME280;9582;52.018;6.306;2022-07-23T02:34:55;101730.00;;;14.66;91.35
18900;BME280;9582;52.018;6.306;2022-07-23T02:37:22;101731.78;;;14.66;91.32
18900;BME280;9582;52.018;6.306;2022-07-23T02:39:48;101730.88;;;14.67;91.52
18900;BME280;9582;52.018;6.306;2022-07-23T02:42:16;101728.38;;;14.64;91.45
18900;BME280;9582;52.018;6.306;2022-07-23T02:44:43;101734.56;;;14.63;91.67
18900;BME280;9582;52.018;6.306;2022-07-23T02:47:10;101728.28;;;14.65;91.36
18900;BME280;9582;52.018;6.306;2022-07-23T02:49:37;101731.28;;;14.58;91.82
18900;BME280;9582;52.018;6.306;2022-07-23T02:52:05;101732.56;;;14.49;91.68
18900;BME280;9582;52.018;6.306;2022-07-23T02:54:31;101729.22;;;14.45;91.84
18900;BME280;9582;52.018;6.306;2022-07-23T02:56:58;101730.22;;;14.62;91.40
18900;BME280;9582;52.018;6.306;2022-07-23T02:59:25;101728.75;;;14.56;91.30
18900;BME280;9582;52.018;6.306;2022-07-23T03:01:52;101731.56;;;14.52;91.06
18900;BME280;9582;52.018;6.306;2022-07-23T03:04:19;101723.91;;;14.47;90.27
18900;BME280;9582;52.018;6.306;2022-07-23T03:06:46;101734.09;;;14.16;90.29
18900;BME280;9582;52.018;6.306;2022-07-23T03:09:13;101719.22;;;14.15;90.37
18900;BME280;9582;52.018;6.306;2022-07-23T03:11:40;101725.97;;;14.02;90.10
18900;BME280;9582;52.018;6.306;2022-07-23T03:14:07;101724.22;;;14.01;89.93
18900;BME280;9582;52.018;6.306;2022-07-23T03:16:35;101729.63;;;13.98;90.85
18900;BME280;9582;52.018;6.306;2022-07-23T03:19:01;101738.31;;;14.00;91.19
18900;BME280;9582;52.018;6.306;2022-07-23T03:21:29;101735.69;;;14.00;91.55
18900;BME280;9582;52.018;6.306;2022-07-23T03:23:55;101735.31;;;13.88;91.33
18900;BME280;9582;52.018;6.306;2022-07-23T03:26:22;101725.19;;;13.79;90.39
18900;BME280;9582;52.018;6.306;2022-07-23T03:28:51;101729.72;;;13.76;90.75
18900;BME280;9582;52.018;6.306;2022-07-23T03:31:18;101731.38;;;13.78;91.29
18900;BME280;9582;52.018;6.306;2022-07-23T03:33:44;101734.50;;;13.86;91.25
18900;BME280;9582;52.018;6.306;2022-07-23T03:36:11;101732.09;;;13.82;91.03
18900;BME280;9582;52.018;6.306;2022-07-23T03:38:42;101737.53;;;13.77;90.10
18900;BME280;9582;52.018;6.306;2022-07-23T03:41:08;101745.31;;;13.60;89.35
18900;BME280;9582;52.018;6.306;2022-07-23T03:43:35;101738.66;;;13.72;88.59
18900;BME280;9582;52.018;6.306;2022-07-23T03:46:01;101745.03;;;13.66;88.65
18900;BME280;9582;52.018;6.306;2022-07-23T03:48:29;101754.38;;;13.53;91.32
18900;BME280;9582;52.018;6.306;2022-07-23T03:50:55;101747.13;;;13.58;92.59
18900;BME280;9582;52.018;6.306;2022-07-23T03:53:22;101753.97;;;13.62;93.25
18900;BME280;9582;52.018;6.306;2022-07-23T03:55:49;101754.84;;;13.63;93.34
18900;BME280;9582;52.018;6.306;2022-07-23T03:58:16;101764.81;;;13.75;93.20
18900;BME280;9582;52.018;6.306;2022-07-23T04:00:42;101756.75;;;13.79;93.47
18900;BME280;9582;52.018;6.306;2022-07-23T04:03:09;101756.34;;;13.88;92.69
18900;BME280;9582;52.018;6.306;2022-07-23T04:05:36;101765.03;;;13.91;93.32
18900;BME280;9582;52.018;6.306;2022-07-23T04:08:05;101760.91;;;14.04;92.84
18900;BME280;9582;52.018;6.306;2022-07-23T04:10:33;101762.66;;;14.05;93.54
18900;BME280;9582;52.018;6.306;2022-07-23T04:13:01;101757.81;;;14.14;93.57
18900;BME280;9582;52.018;6.306;2022-07-23T04:15:27;101759.41;;;14.18;93.08
18900;BME280;9582;52.018;6.306;2022-07-23T04:17:54;101757.63;;;14.19;93.25
18900;BME280;9582;52.018;6.306;2022-07-23T04:20:22;101757.22;;;14.28;92.68
18900;BME280;9582;52.018;6.306;2022-07-23T04:22:54;101766.63;;;14.13;93.11
18900;BME280;9582;52.018;6.306;2022-07-23T04:25:21;101753.13;;;14.21;93.04
18900;BME280;9582;52.018;6.306;2022-07-23T04:27:48;101749.16;;;14.31;92.27
18900;BME280;9582;52.018;6.306;2022-07-23T04:30:16;101748.38;;;14.10;92.27
18900;BME280;9582;52.018;6.306;2022-07-23T04:32:43;101749.91;;;14.14;92.02
18900;BME280;9582;52.018;6.306;2022-07-23T04:35:19;101748.09;;;14.16;92.03
18900;BME280;9582;52.018;6.306;2022-07-23T04:37:46;101747.41;;;14.11;91.96
18900;BME280;9582;52.018;6.306;2022-07-23T04:40:13;101751.41;;;14.20;91.50
18900;BME280;9582;52.018;6.306;2022-07-23T04:42:39;101749.09;;;14.14;91.80
18900;BME280;9582;52.018;6.306;2022-07-23T04:45:07;101749.50;;;14.23;92.65
18900;BME280;9582;52.018;6.306;2022-07-23T04:47:35;101750.41;;;14.42;92.97
18900;BME280;9582;52.018;6.306;2022-07-23T04:50:01;101757.16;;;14.48;92.65
18900;BME280;9582;52.018;6.306;2022-07-23T04:52:28;101750.22;;;14.47;92.45
18900;BME280;9582;52.018;6.306;2022-07-23T04:54:55;101757.75;;;14.36;92.54
18900;BME280;9582;52.018;6.306;2022-07-23T04:57:22;101756.94;;;14.34;93.38
18900;BME280;9582;52.018;6.306;2022-07-23T04:59:48;101760.75;;;14.47;94.28
18900;BME280;9582;52.018;6.306;2022-07-23T05:02:15;101750.84;;;14.71;93.15
18900;BME280;9582;52.018;6.306;2022-07-23T05:04:43;101751.19;;;14.82;92.87
18900;BME280;9582;52.018;6.306;2022-07-23T05:07:10;101757.03;;;14.88;92.68
18900;BME280;9582;52.018;6.306;2022-07-23T05:09:37;101758.81;;;14.69;92.74
18900;BME280;9582;52.018;6.306;2022-07-23T05:12:04;101760.75;;;14.84;93.22
18900;BME280;9582;52.018;6.306;2022-07-23T05:14:32;101767.88;;;14.99;93.16
18900;BME280;9582;52.018;6.306;2022-07-23T05:16:58;101769.66;;;14.99;93.41
18900;BME280;9582;52.018;6.306;2022-07-23T05:19:25;101772.63;;;15.10;93.13
18900;BME280;9582;52.018;6.306;2022-07-23T05:21:54;101777.03;;;15.28;92.81
18900;BME280;9582;52.018;6.306;2022-07-23T05:24:21;101768.06;;;15.32;92.71
18900;BME280;9582;52.018;6.306;2022-07-23T05:26:48;101769.78;;;15.50;92.23
18900;BME280;9582;52.018;6.306;2022-07-23T05:29:15;101773.84;;;15.57;92.06
18900;BME280;9582;52.018;6.306;2022-07-23T05:31:41;101776.53;;;15.90;92.08
18900;BME280;9582;52.018;6.306;2022-07-23T05:34:08;101779.34;;;16.53;90.68
18900;BME280;9582;52.018;6.306;2022-07-23T05:36:36;101777.78;;;17.13;87.43
18900;BME280;9582;52.018;6.306;2022-07-23T05:39:04;101773.53;;;17.40;84.84
18900;BME280;9582;52.018;6.306;2022-07-23T05:41:34;101784.53;;;17.64;84.23
18900;BME280;9582;52.018;6.306;2022-07-23T05:44:02;101784.84;;;17.87;82.51
18900;BME280;9582;52.018;6.306;2022-07-23T05:46:30;101781.66;;;17.97;81.78
18900;BME280;9582;52.018;6.306;2022-07-23T05:49:01;101794.06;;;18.38;81.45
18900;BME280;9582;52.018;6.306;2022-07-23T05:51:50;101793.69;;;18.73;79.60
18900;BME280;9582;52.018;6.306;2022-07-23T05:54:27;101792.66;;;18.61;78.46
18900;BME280;9582;52.018;6.306;2022-07-23T05:56:53;101802.78;;;18.55;79.02
18900;BME280;9582;52.018;6.306;2022-07-23T05:59:20;101799.28;;;18.82;78.38
18900;BME280;9582;52.018;6.306;2022-07-23T06:01:47;101799.72;;;18.89;78.29
18900;BME280;9582;52.018;6.306;2022-07-23T06:04:15;101811.31;;;18.74;78.54
18900;BME280;9582;52.018;6.306;2022-07-23T06:06:51;101809.75;;;18.98;77.89
18900;BME280;9582;52.018;6.306;2022-07-23T06:09:17;101814.09;;;19.26;76.90
18900;BME280;9582;52.018;6.306;2022-07-23T06:11:45;101815.81;;;19.27;76.25
18900;BME280;9582;52.018;6.306;2022-07-23T06:14:11;101812.16;;;19.15;77.17
18900;BME280;9582;52.018;6.306;2022-07-23T06:16:50;101811.44;;;18.99;77.33
18900;BME280;9582;52.018;6.306;2022-07-23T06:19:16;101801.03;;;18.96;77.41
18900;BME280;9582;52.018;6.306;2022-07-23T06:21:44;101814.50;;;19.20;77.13
18900;BME280;9582;52.018;6.306;2022-07-23T06:24:10;101806.41;;;19.62;76.60
18900;BME280;9582;52.018;6.306;2022-07-23T06:26:38;101807.09;;;19.78;75.54
18900;BME280;9582;52.018;6.306;2022-07-23T06:29:06;101801.22;;;19.73;74.85
18900;BME280;9582;52.018;6.306;2022-07-23T06:31:32;101804.44;;;19.91;74.86
18900;BME280;9582;52.018;6.306;2022-07-23T06:33:59;101809.34;;;19.97;74.27
18900;BME280;9582;52.018;6.306;2022-07-23T06:36:26;101802.19;;;19.85;73.80
18900;BME280;9582;52.018;6.306;2022-07-23T06:38:52;101802.22;;;19.97;73.74
18900;BME280;9582;52.018;6.306;2022-07-23T06:41:19;101803.66;;;19.64;74.02
18900;BME280;9582;52.018;6.306;2022-07-23T06:43:45;101798.34;;;19.64;74.13
18900;BME280;9582;52.018;6.306;2022-07-23T06:46:16;101808.75;;;19.67;74.42
18900;BME280;9582;52.018;6.306;2022-07-23T06:48:42;101807.25;;;19.63;73.85
18900;BME280;9582;52.018;6.306;2022-07-23T06:51:09;101802.41;;;19.82;73.39
18900;BME280;9582;52.018;6.306;2022-07-23T06:53:35;101813.34;;;19.90;73.66
18900;BME280;9582;52.018;6.306;2022-07-23T06:56:02;101812.19;;;19.94;72.58
18900;BME280;9582;52.018;6.306;2022-07-23T06:58:28;101809.78;;;20.03;72.72
18900;BME280;9582;52.018;6.306;2022-07-23T07:00:55;101826.34;;;20.20;72.43
18900;BME280;9582;52.018;6.306;2022-07-23T07:03:23;101819.88;;;20.24;71.89
18900;BME280;9582;52.018;6.306;2022-07-23T07:05:50;101821.56;;;19.99;72.25
18900;BME280;9582;52.018;6.306;2022-07-23T07:08:17;101825.53;;;19.67;72.48
18900;BME280;9582;52.018;6.306;2022-07-23T07:10:43;101829.59;;;19.73;73.40
18900;BME280;9582;52.018;6.306;2022-07-23T07:13:10;101829.22;;;19.38;71.97
18900;BME280;9582;52.018;6.306;2022-07-23T07:15:36;101835.44;;;19.51;73.54
18900;BME280;9582;52.018;6.306;2022-07-23T07:18:03;101833.78;;;19.63;72.85
18900;BME280;9582;52.018;6.306;2022-07-23T07:20:31;101835.09;;;19.70;71.90
18900;BME280;9582;52.018;6.306;2022-07-23T07:22:57;101835.56;;;20.01;71.03
18900;BME280;9582;52.018;6.306;2022-07-23T07:25:24;101834.53;;;20.16;70.28
18900;BME280;9582;52.018;6.306;2022-07-23T07:27:51;101834.78;;;20.26;71.27
18900;BME280;9582;52.018;6.306;2022-07-23T07:30:18;101835.53;;;20.28;69.18
18900;BME280;9582;52.018;6.306;2022-07-23T07:32:44;101838.69;;;20.58;69.06
18900;BME280;9582;52.018;6.306;2022-07-23T07:35:10;101842.63;;;20.65;68.18
18900;BME280;9582;52.018;6.306;2022-07-23T07:37:38;101845.09;;;20.43;67.08
18900;BME280;9582;52.018;6.306;2022-07-23T07:40:06;101837.63;;;20.61;67.75
18900;BME280;9582;52.018;6.306;2022-07-23T07:42:32;101841.66;;;20.66;66.83
18900;BME280;9582;52.018;6.306;2022-07-23T07:44:59;101837.69;;;20.85;66.99
18900;BME280;9582;52.018;6.306;2022-07-23T07:47:26;101835.47;;;20.91;66.01
18900;BME280;9582;52.018;6.306;2022-07-23T07:49:52;101838.94;;;20.92;66.35
18900;BME280;9582;52.018;6.306;2022-07-23T07:52:19;101834.47;;;21.05;65.21
18900;BME280;9582;52.018;6.306;2022-07-23T07:54:47;101839.22;;;21.25;64.91
18900;BME280;9582;52.018;6.306;2022-07-23T07:57:13;101839.34;;;20.98;64.80
18900;BME280;9582;52.018;6.306;2022-07-23T07:59:39;101848.56;;;20.69;65.83
18900;BME280;9582;52.018;6.306;2022-07-23T08:02:06;101845.81;;;20.70;66.06
18900;BME280;9582;52.018;6.306;2022-07-23T08:04:32;101838.50;;;20.98;64.78
18900;BME280;9582;52.018;6.306;2022-07-23T08:06:59;101844.91;;;21.08;64.12
18900;BME280;9582;52.018;6.306;2022-07-23T08:09:25;101855.34;;;21.11;63.00
18900;BME280;9582;52.018;6.306;2022-07-23T08:11:53;101859.00;;;21.21;62.90
18900;BME280;9582;52.018;6.306;2022-07-23T08:14:19;101854.97;;;21.15;63.72
18900;BME280;9582;52.018;6.306;2022-07-23T08:16:46;101861.03;;;21.17;63.18
18900;BME280;9582;52.018;6.306;2022-07-23T08:19:12;101855.47;;;21.33;64.23
18900;BME280;9582;52.018;6.306;2022-07-23T08:21:39;101860.44;;;21.61;62.90
18900;BME280;9582;52.018;6.306;2022-07-23T08:24:06;101857.19;;;21.69;61.66
18900;BME280;9582;52.018;6.306;2022-07-23T08:26:32;101857.66;;;21.63;60.70
18900;BME280;9582;52.018;6.306;2022-07-23T08:29:00;101850.97;;;21.57;61.89
18900;BME280;9582;52.018;6.306;2022-07-23T08:31:26;101856.75;;;21.75;62.67
18900;BME280;9582;52.018;6.306;2022-07-23T08:33:53;101865.22;;;21.80;60.38
18900;BME280;9582;52.018;6.306;2022-07-23T08:36:20;101863.03;;;21.98;61.39
18900;BME280;9582;52.018;6.306;2022-07-23T08:38:46;101866.13;;;22.15;60.74
18900;BME280;9582;52.018;6.306;2022-07-23T08:41:13;101864.81;;;22.43;60.74
18900;BME280;9582;52.018;6.306;2022-07-23T08:43:40;101869.97;;;22.68;61.00
18900;BME280;9582;52.018;6.306;2022-07-23T08:46:09;101859.75;;;22.62;59.90
18900;BME280;9582;52.018;6.306;2022-07-23T08:48:36;101864.72;;;22.78;59.55
18900;BME280;9582;52.018;6.306;2022-07-23T08:51:04;101863.69;;;22.12;59.28
18900;BME280;9582;52.018;6.306;2022-07-23T08:53:32;101859.06;;;21.79;59.74
18900;BME280;9582;52.018;6.306;2022-07-23T08:56:02;101863.75;;;22.00;59.95
18900;BME280;9582;52.018;6.306;2022-07-23T08:58:30;101869.31;;;21.97;60.08
18900;BME280;9582;52.018;6.306;2022-07-23T09:00:56;101866.88;;;21.94;60.69
18900;BME280;9582;52.018;6.306;2022-07-23T09:03:26;101867.34;;;22.33;60.84
18900;BME280;9582;52.018;6.306;2022-07-23T09:05:54;101865.91;;;22.40;58.70
18900;BME280;9582;52.018;6.306;2022-07-23T09:08:23;101871.53;;;22.71;57.62
18900;BME280;9582;52.018;6.306;2022-07-23T09:10:53;101872.19;;;22.39;57.65
18900;BME280;9582;52.018;6.306;2022-07-23T09:13:27;101868.78;;;22.15;56.25
18900;BME280;9582;52.018;6.306;2022-07-23T09:15:56;101879.69;;;22.23;57.92
18900;BME280;9582;52.018;6.306;2022-07-23T09:18:33;101881.75;;;22.31;58.51
18900;BME280;9582;52.018;6.306;2022-07-23T09:21:22;101876.91;;;22.25;56.12
18900;BME280;9582;52.018;6.306;2022-07-23T09:23:54;101871.53;;;22.14;57.79
18900;BME280;9582;52.018;6.306;2022-07-23T09:26:24;101869.53;;;22.39;57.76
18900;BME280;9582;52.018;6.306;2022-07-23T09:28:54;101869.97;;;22.68;56.88
18900;BME280;9582;52.018;6.306;2022-07-23T09:31:21;101866.78;;;22.52;56.56
18900;BME280;9582;52.018;6.306;2022-07-23T09:33:49;101872.00;;;22.65;57.59
18900;BME280;9582;52.018;6.306;2022-07-23T09:36:26;101864.56;;;22.35;55.74
18900;BME280;9582;52.018;6.306;2022-07-23T09:38:54;101868.94;;;22.58;55.58
18900;BME280;9582;52.018;6.306;2022-07-23T09:41:20;101871.41;;;22.83;55.43
18900;BME280;9582;52.018;6.306;2022-07-23T09:43:55;101870.44;;;22.84;55.85
18900;BME280;9582;52.018;6.306;2022-07-23T09:46:23;101872.75;;;23.00;55.81
18900;BME280;9582;52.018;6.306;2022-07-23T09:48:51;101875.25;;;23.13;55.69
18900;BME280;9582;52.018;6.306;2022-07-23T09:51:18;101875.88;;;23.05;54.19
18900;BME280;9582;52.018;6.306;2022-07-23T09:53:49;101872.84;;;23.10;52.76
18900;BME280;9582;52.018;6.306;2022-07-23T09:56:15;101877.06;;;23.23;52.68
18900;BME280;9582;52.018;6.306;2022-07-23T09:58:44;101871.38;;;23.39;52.80
18900;BME280;9582;52.018;6.306;2022-07-23T10:01:14;101879.13;;;23.31;52.15
18900;BME280;9582;52.018;6.306;2022-07-23T10:03:42;101883.00;;;23.27;53.84
18900;BME280;9582;52.018;6.306;2022-07-23T10:06:45;101882.88;;;23.28;52.84
18900;BME280;9582;52.018;6.306;2022-07-23T10:09:33;101880.56;;;23.35;54.48
18900;BME280;9582;52.018;6.306;2022-07-23T10:12:19;101872.69;;;23.33;52.93
18900;BME280;9582;52.018;6.306;2022-07-23T10:15:15;101875.41;;;23.65;52.64
18900;BME280;9582;52.018;6.306;2022-07-23T10:17:41;101867.16;;;23.14;52.16
18900;BME280;9582;52.018;6.306;2022-07-23T10:20:08;101863.28;;;22.96;53.25
18900;BME280;9582;52.018;6.306;2022-07-23T10:22:40;101867.13;;;23.25;53.27
18900;BME280;9582;52.018;6.306;2022-07-23T10:25:12;101865.38;;;23.35;52.64
18900;BME280;9582;52.018;6.306;2022-07-23T10:27:49;101866.50;;;23.44;52.30
18900;BME280;9582;52.018;6.306;2022-07-23T10:30:20;101869.56;;;23.06;52.02
18900;BME280;9582;52.018;6.306;2022-07-23T10:32:56;101867.16;;;22.92;52.49
18900;BME280;9582;52.018;6.306;2022-07-23T10:35:31;101865.06;;;23.18;51.54
18900;BME280;9582;52.018;6.306;2022-07-23T10:38:10;101860.19;;;23.34;52.65
18900;BME280;9582;52.018;6.306;2022-07-23T10:40:53;101858.75;;;23.19;51.26
18900;BME280;9582;52.018;6.306;2022-07-23T10:43:19;101852.75;;;23.37;52.37
18900;BME280;9582;52.018;6.306;2022-07-23T10:45:46;101857.09;;;23.61;51.56
18900;BME280;9582;52.018;6.306;2022-07-23T10:48:17;101856.19;;;23.71;50.61
18900;BME280;9582;52.018;6.306;2022-07-23T10:51:07;101848.91;;;23.73;50.05
18900;BME280;9582;52.018;6.306;2022-07-23T10:53:56;101849.22;;;23.80;51.05
18900;BME280;9582;52.018;6.306;2022-07-23T10:57:04;101854.03;;;23.65;50.63
18900;BME280;9582;52.018;6.306;2022-07-23T11:02:34;101861.34;;;23.52;52.05
18900;BME280;9582;52.018;6.306;2022-07-23T11:05:04;101849.50;;;23.45;51.45
18900;BME280;9582;52.018;6.306;2022-07-23T11:07:31;101857.88;;;23.29;51.67
18900;BME280;9582;52.018;6.306;2022-07-23T11:09:59;101861.88;;;23.35;53.45
18900;BME280;9582;52.018;6.306;2022-07-23T11:12:33;101865.06;;;23.07;52.87
18900;BME280;9582;52.018;6.306;2022-07-23T11:15:06;101856.13;;;22.96;53.62
18900;BME280;9582;52.018;6.306;2022-07-23T11:17:33;101865.22;;;23.05;53.55
18900;BME280;9582;52.018;6.306;2022-07-23T11:20:16;101860.31;;;23.21;53.58
18900;BME280;9582;52.018;6.306;2022-07-23T11:22:51;101859.69;;;23.40;52.35
18900;BME280;9582;52.018;6.306;2022-07-23T11:25:35;101857.22;;;23.59;53.11
18900;BME280;9582;52.018;6.306;2022-07-23T11:28:10;101860.50;;;23.83;51.73
18900;BME280;9582;52.018;6.306;2022-07-23T11:30:39;101859.44;;;23.75;52.94
18900;BME280;9582;52.018;6.306;2022-07-23T11:33:21;101862.59;;;24.00;51.42
18900;BME280;9582;52.018;6.306;2022-07-23T11:36:00;101867.81;;;24.13;51.83
18900;BME280;9582;52.018;6.306;2022-07-23T11:38:30;101867.91;;;24.32;51.70
18900;BME280;9582;52.018;6.306;2022-07-23T11:40:59;101865.94;;;24.34;50.37
18900;BME280;9582;52.018;6.306;2022-07-23T11:43:26;101870.69;;;24.31;50.57
18900;BME280;9582;52.018;6.306;2022-07-23T11:45:56;101867.69;;;24.45;50.97
18900;BME280;9582;52.018;6.306;2022-07-23T11:48:25;101856.19;;;24.54;50.92
18900;BME280;9582;52.018;6.306;2022-07-23T11:50:53;101858.34;;;24.60;50.67
18900;BME280;9582;52.018;6.306;2022-07-23T11:53:23;101855.53;;;24.31;51.24
18900;BME280;9582;52.018;6.306;2022-07-23T11:55:50;101862.50;;;24.23;51.49
18900;BME280;9582;52.018;6.306;2022-07-23T11:58:18;101860.44;;;23.94;52.34
18900;BME280;9582;52.018;6.306;2022-07-23T12:00:45;101861.88;;;24.09;51.83
18900;BME280;9582;52.018;6.306;2022-07-23T12:03:11;101855.69;;;24.39;50.95
18900;BME280;9582;52.018;6.306;2022-07-23T12:05:39;101855.69;;;24.60;51.53
18900;BME280;9582;52.018;6.306;2022-07-23T12:08:07;101856.97;;;24.65;51.50
18900;BME280;9582;52.018;6.306;2022-07-23T12:10:35;101846.88;;;24.48;51.30
18900;BME280;9582;52.018;6.306;2022-07-23T12:13:04;101848.59;;;24.49;52.18
18900;BME280;9582;52.018;6.306;2022-07-23T12:15:34;101838.81;;;24.69;50.89
18900;BME280;9582;52.018;6.306;2022-07-23T12:18:05;101853.97;;;24.80;50.46
18900;BME280;9582;52.018;6.306;2022-07-23T12:20:33;101849.25;;;24.72;51.27
18900;BME280;9582;52.018;6.306;2022-07-23T12:23:03;101846.97;;;24.67;50.74
18900;BME280;9582;52.018;6.306;2022-07-23T12:25:32;101848.34;;;24.62;50.75
18900;BME280;9582;52.018;6.306;2022-07-23T12:28:01;101845.72;;;25.02;50.84
18900;BME280;9582;52.018;6.306;2022-07-23T12:30:30;101847.41;;;25.03;50.19
18900;BME280;9582;52.018;6.306;2022-07-23T12:32:59;101840.81;;;24.77;51.08
18900;BME280;9582;52.018;6.306;2022-07-23T12:35:31;101851.63;;;24.65;53.16
18900;BME280;9582;52.018;6.306;2022-07-23T12:38:01;101849.25;;;24.72;52.16
18900;BME280;9582;52.018;6.306;2022-07-23T12:40:29;101843.56;;;24.86;50.62
18900;BME280;9582;52.018;6.306;2022-07-23T12:42:58;101850.94;;;25.03;49.87
18900;BME280;9582;52.018;6.306;2022-07-23T12:45:26;101852.13;;;24.80;49.97
18900;BME280;9582;52.018;6.306;2022-07-23T12:48:01;101843.16;;;24.91;50.36
18900;BME280;9582;52.018;6.306;2022-07-23T12:50:38;101840.78;;;24.97;51.94
18900;BME280;9582;52.018;6.306;2022-07-23T12:53:06;101846.84;;;24.99;51.47
18900;BME280;9582;52.018;6.306;2022-07-23T12:55:34;101848.38;;;25.02;50.26
18900;BME280;9582;52.018;6.306;2022-07-23T12:58:05;101841.78;;;25.06;49.76
18900;BME280;9582;52.018;6.306;2022-07-23T13:00:32;101836.03;;;25.30;50.29
18900;BME280;9582;52.018;6.306;2022-07-23T13:03:00;101837.78;;;25.50;50.75
18900;BME280;9582;52.018;6.306;2022-07-23T13:05:26;101834.41;;;25.67;49.59
18900;BME280;9582;52.018;6.306;2022-07-23T13:07:53;101832.56;;;25.58;50.23
18900;BME280;9582;52.018;6.306;2022-07-23T13:10:19;101833.38;;;25.97;50.04
18900;BME280;9582;52.018;6.306;2022-07-23T13:12:46;101830.28;;;26.20;48.96